sensor_id;sensor_type;location;lat;lon;timestamp;pressure;altitude;pressure_sealevel;temperature
10598;BMP180;5346;48.766;8.674;2023-05-29T00:02:21;94243.00;;;12.20
10598;BMP180;5346;48.766;8.674;2023-05-29T00:04:55;94244.00;;;12.40
10598;BMP180;5346;48.766;8.674;2023-05-29T00:07:31;94245.00;;;12.40
10598;BMP180;5346;48.766;8.674;2023-05-29T00:10:07;94246.00;;;12.40
10598;BMP180;5346;48.766;8.674;2023-05-29T00:12:48;94242.00;;;12.40
10598;BMP180;5346;48.766;8.674;2023-05-29T00:15:23;94247.00;;;12.50
10598;BMP180;5346;48.766;8.674;2023-05-29T00:17:50;94234.00;;;12.40
10598;BMP180;5346;48.766;8.674;2023-05-29T00:20:41;94212.00;;;12.10
10598;BMP180;5346;48.766;8.674;2023-05-29T00:23:15;94228.00;;;12.00
10598;BMP180;5346;48.766;8.674;2023-05-29T00:25:48;94234.00;;;11.90
10598;BMP180;5346;48.766;8.674;2023-05-29T00:28:17;94202.00;;;11.90
10598;BMP180;5346;48.766;8.674;2023-05-29T00:30:50;94216.00;;;12.00
10598;BMP180;5346;48.766;8.674;2023-05-29T00:33:17;94232.00;;;12.00
10598;BMP180;5346;48.766;8.674;2023-05-29T00:35:51;94235.00;;;12.10
10598;BMP180;5346;48.766;8.674;2023-05-29T00:38:25;94203.00;;;12.00
10598;BMP180;5346;48.766;8.674;2023-05-29T00:41:06;94227.00;;;12.00
10598;BMP180;5346;48.766;8.674;2023-05-29T00:43:41;94220.00;;;11.90
10598;BMP180;5346;48.766;8.674;2023-05-29T00:46:31;94235.00;;;11.80
10598;BMP180;5346;48.766;8.674;2023-05-29T00:49:05;94222.00;;;11.90
10598;BMP180;5346;48.766;8.674;2023-05-29T00:51:33;94226.00;;;11.80
10598;BMP180;5346;48.766;8.674;2023-05-29T00:54:00;94226.00;;;11.70
10598;BMP180;5346;48.766;8.674;2023-05-29T00:56:38;94215.00;;;11.70
10598;BMP180;5346;48.766;8.674;2023-05-29T00:59:12;94218.00;;;11.70
10598;BMP180;5346;48.766;8.674;2023-05-29T01:01:54;94232.00;;;11.70
10598;BMP180;5346;48.766;8.674;2023-05-29T01:04:36;94218.00;;;11.60
10598;BMP180;5346;48.766;8.674;2023-05-29T01:07:03;94209.00;;;11.50
10598;BMP180;5346;48.766;8.674;2023-05-29T01:09:37;94219.00;;;11.50
10598;BMP180;5346;48.766;8.674;2023-05-29T01:12:23;94218.00;;;11.50
10598;BMP180;5346;48.766;8.674;2023-05-29T01:18:41;94207.00;;;11.40
10598;BMP180;5346;48.766;8.674;2023-05-29T01:21:27;94213.00;;;11.40
10598;BMP180;5346;48.766;8.674;2023-05-29T01:24:07;94214.00;;;11.30
10598;BMP180;5346;48.766;8.674;2023-05-29T01:27:07;94209.00;;;11.20
10598;BMP180;5346;48.766;8.674;2023-05-29T01:29:45;94198.00;;;11.10
10598;BMP180;5346;48.766;8.674;2023-05-29T01:32:13;94180.00;;;11.20
10598;BMP180;5346;48.766;8.674;2023-05-29T01:34:46;94186.00;;;11.10
10598;BMP180;5346;48.766;8.674;2023-05-29T01:37:13;94183.00;;;11.00
10598;BMP180;5346;48.766;8.674;2023-05-29T01:39:47;94193.00;;;11.00
10598;BMP180;5346;48.766;8.674;2023-05-29T01:42:22;94178.00;;;11.00
10598;BMP180;5346;48.766;8.674;2023-05-29T01:44:57;94205.00;;;10.90
10598;BMP180;5346;48.766;8.674;2023-05-29T01:47:30;94209.00;;;11.10
10598;BMP180;5346;48.766;8.674;2023-05-29T01:50:05;94209.00;;;11.00
10598;BMP180;5346;48.766;8.674;2023-05-29T01:52:34;94211.00;;;10.90
10598;BMP180;5346;48.766;8.674;2023-05-29T01:55:08;94186.00;;;10.90
10598;BMP180;5346;48.766;8.674;2023-05-29T01:57:54;94209.00;;;10.80
10598;BMP180;5346;48.766;8.674;2023-05-29T02:00:22;94191.00;;;10.70
10598;BMP180;5346;48.766;8.674;2023-05-29T02:03:03;94201.00;;;10.60
10598;BMP180;5346;48.766;8.674;2023-05-29T02:05:44;94194.00;;;10.60
10598;BMP180;5346;48.766;8.674;2023-05-29T02:08:19;94182.00;;;10.50
10598;BMP180;5346;48.766;8.674;2023-05-29T02:10:46;94200.00;;;10.60
10598;BMP180;5346;48.766;8.674;2023-05-29T02:13:20;94179.00;;;10.60
10598;BMP180;5346;48.766;8.674;2023-05-29T02:15:47;94178.00;;;10.50
10598;BMP180;5346;48.766;8.674;2023-05-29T02:18:21;94172.00;;;10.50
10598;BMP180;5346;48.766;8.674;2023-05-29T02:20:49;94161.00;;;10.60
10598;BMP180;5346;48.766;8.674;2023-05-29T02:23:23;94189.00;;;10.60
10598;BMP180;5346;48.766;8.674;2023-05-29T02:26:12;94192.00;;;10.60
10598;BMP180;5346;48.766;8.674;2023-05-29T02:28:47;94190.00;;;10.60
10598;BMP180;5346;48.766;8.674;2023-05-29T02:31:21;94184.00;;;10.70
10598;BMP180;5346;48.766;8.674;2023-05-29T02:33:55;94186.00;;;10.80
10598;BMP180;5346;48.766;8.674;2023-05-29T02:36:23;94171.00;;;10.70
10598;BMP180;5346;48.766;8.674;2023-05-29T02:38:57;94191.00;;;10.70
10598;BMP180;5346;48.766;8.674;2023-05-29T02:41:30;94166.00;;;10.60
10598;BMP180;5346;48.766;8.674;2023-05-29T02:44:18;94185.00;;;10.60
10598;BMP180;5346;48.766;8.674;2023-05-29T02:47:06;94172.00;;;10.60
10598;BMP180;5346;48.766;8.674;2023-05-29T02:49:39;94160.00;;;10.40
10598;BMP180;5346;48.766;8.674;2023-05-29T02:52:13;94172.00;;;10.50
10598;BMP180;5346;48.766;8.674;2023-05-29T02:54:40;94152.00;;;10.40
10598;BMP180;5346;48.766;8.674;2023-05-29T02:57:15;94191.00;;;10.40
10598;BMP180;5346;48.766;8.674;2023-05-29T02:59:49;94163.00;;;10.20
10598;BMP180;5346;48.766;8.674;2023-05-29T03:02:22;94167.00;;;10.20
10598;BMP180;5346;48.766;8.674;2023-05-29T03:05:24;94187.00;;;10.20
10598;BMP180;5346;48.766;8.674;2023-05-29T03:07:52;94153.00;;;10.30
10598;BMP180;5346;48.766;8.674;2023-05-29T03:10:40;94152.00;;;10.20
10598;BMP180;5346;48.766;8.674;2023-05-29T03:13:14;94182.00;;;10.10
10598;BMP180;5346;48.766;8.674;2023-05-29T03:15:48;94185.00;;;10.10
10598;BMP180;5346;48.766;8.674;2023-05-29T03:18:23;94178.00;;;10.10
10598;BMP180;5346;48.766;8.674;2023-05-29T03:20:56;94155.00;;;10.10
10598;BMP180;5346;48.766;8.674;2023-05-29T03:23:30;94179.00;;;10.10
10598;BMP180;5346;48.766;8.674;2023-05-29T03:26:04;94170.00;;;10.10
10598;BMP180;5346;48.766;8.674;2023-05-29T03:28:39;94171.00;;;10.10
10598;BMP180;5346;48.766;8.674;2023-05-29T03:31:13;94163.00;;;10.20
10598;BMP180;5346;48.766;8.674;2023-05-29T03:33:49;94190.00;;;10.10
10598;BMP180;5346;48.766;8.674;2023-05-29T03:36:22;94171.00;;;10.20
10598;BMP180;5346;48.766;8.674;2023-05-29T03:38:55;94157.00;;;10.30
10598;BMP180;5346;48.766;8.674;2023-05-29T03:41:43;94185.00;;;10.40
10598;BMP180;5346;48.766;8.674;2023-05-29T03:44:24;94164.00;;;10.50
10598;BMP180;5346;48.766;8.674;2023-05-29T03:46:58;94165.00;;;10.50
10598;BMP180;5346;48.766;8.674;2023-05-29T03:49:26;94163.00;;;10.60
10598;BMP180;5346;48.766;8.674;2023-05-29T03:51:59;94162.00;;;10.50
10598;BMP180;5346;48.766;8.674;2023-05-29T03:54:27;94165.00;;;10.60
10598;BMP180;5346;48.766;8.674;2023-05-29T03:57:02;94192.00;;;10.60
10598;BMP180;5346;48.766;8.674;2023-05-29T03:59:29;94186.00;;;10.60
10598;BMP180;5346;48.766;8.674;2023-05-29T04:02:03;94172.00;;;10.70
10598;BMP180;5346;48.766;8.674;2023-05-29T04:04:40;94178.00;;;10.60
10598;BMP180;5346;48.766;8.674;2023-05-29T04:07:20;94183.00;;;10.60
10598;BMP180;5346;48.766;8.674;2023-05-29T04:09:48;94154.00;;;10.70
10598;BMP180;5346;48.766;8.674;2023-05-29T04:12:37;94178.00;;;10.80
10598;BMP180;5346;48.766;8.674;2023-05-29T04:15:36;94159.00;;;11.00
10598;BMP180;5346;48.766;8.674;2023-05-29T04:18:04;94185.00;;;11.10
10598;BMP180;5346;48.766;8.674;2023-05-29T04:20:38;94180.00;;;11.20
10598;BMP180;5346;48.766;8.674;2023-05-29T04:23:26;94198.00;;;11.30
10598;BMP180;5346;48.766;8.674;2023-05-29T04:25:59;94191.00;;;11.40
10598;BMP180;5346;48.766;8.674;2023-05-29T04:28:29;94187.00;;;11.30
10598;BMP180;5346;48.766;8.674;2023-05-29T04:31:03;94199.00;;;11.60
10598;BMP180;5346;48.766;8.674;2023-05-29T04:33:30;94198.00;;;11.80
10598;BMP180;5346;48.766;8.674;2023-05-29T04:36:04;94187.00;;;12.00
10598;BMP180;5346;48.766;8.674;2023-05-29T04:38:31;94199.00;;;12.10
10598;BMP180;5346;48.766;8.674;2023-05-29T04:41:04;94212.00;;;12.20
10598;BMP180;5346;48.766;8.674;2023-05-29T04:43:55;94213.00;;;12.30
10598;BMP180;5346;48.766;8.674;2023-05-29T04:46:24;94214.00;;;12.50
10598;BMP180;5346;48.766;8.674;2023-05-29T04:48:58;94206.00;;;12.60
10598;BMP180;5346;48.766;8.674;2023-05-29T04:51:31;94225.00;;;12.70
10598;BMP180;5346;48.766;8.674;2023-05-29T04:54:09;94207.00;;;12.70
10598;BMP180;5346;48.766;8.674;2023-05-29T04:56:43;94190.00;;;12.90
10598;BMP180;5346;48.766;8.674;2023-05-29T04:59:17;94219.00;;;13.10
10598;BMP180;5346;48.766;8.674;2023-05-29T05:01:51;94226.00;;;13.20
10598;BMP180;5346;48.766;8.674;2023-05-29T05:04:32;94233.00;;;13.40
10598;BMP180;5346;48.766;8.674;2023-05-29T05:07:06;94232.00;;;13.60
10598;BMP180;5346;48.766;8.674;2023-05-29T05:09:33;94232.00;;;13.70
10598;BMP180;5346;48.766;8.674;2023-05-29T05:12:23;94212.00;;;13.90
10598;BMP180;5346;48.766;8.674;2023-05-29T05:14:51;94235.00;;;14.00
10598;BMP180;5346;48.766;8.674;2023-05-29T05:17:24;94233.00;;;14.20
10598;BMP180;5346;48.766;8.674;2023-05-29T05:19:58;94235.00;;;14.30
10598;BMP180;5346;48.766;8.674;2023-05-29T05:22:33;94222.00;;;14.50
10598;BMP180;5346;48.766;8.674;2023-05-29T05:25:00;94208.00;;;14.50
10598;BMP180;5346;48.766;8.674;2023-05-29T05:27:33;94232.00;;;14.60
10598;BMP180;5346;48.766;8.674;2023-05-29T05:30:03;94231.00;;;14.80
10598;BMP180;5346;48.766;8.674;2023-05-29T05:32:36;94235.00;;;14.90
10598;BMP180;5346;48.766;8.674;2023-05-29T05:35:10;94231.00;;;15.10
10598;BMP180;5346;48.766;8.674;2023-05-29T05:37:49;94224.00;;;15.10
10598;BMP180;5346;48.766;8.674;2023-05-29T05:40:32;94241.00;;;15.40
10598;BMP180;5346;48.766;8.674;2023-05-29T05:43:05;94237.00;;;15.40
10598;BMP180;5346;48.766;8.674;2023-05-29T05:45:39;94236.00;;;15.50
10598;BMP180;5346;48.766;8.674;2023-05-29T05:48:09;94246.00;;;15.80
10598;BMP180;5346;48.766;8.674;2023-05-29T05:50:42;94221.00;;;15.90
10598;BMP180;5346;48.766;8.674;2023-05-29T05:53:16;94244.00;;;16.10
10598;BMP180;5346;48.766;8.674;2023-05-29T05:55:44;94257.00;;;16.40
10598;BMP180;5346;48.766;8.674;2023-05-29T05:58:32;94235.00;;;16.70
10598;BMP180;5346;48.766;8.674;2023-05-29T06:01:06;94232.00;;;17.10
10598;BMP180;5346;48.766;8.674;2023-05-29T06:03:41;94237.00;;;17.20
10598;BMP180;5346;48.766;8.674;2023-05-29T06:06:16;94257.00;;;17.60
10598;BMP180;5346;48.766;8.674;2023-05-29T06:08:52;94258.00;;;17.60
10598;BMP180;5346;48.766;8.674;2023-05-29T06:11:19;94250.00;;;17.80
10598;BMP180;5346;48.766;8.674;2023-05-29T06:13:53;94254.00;;;18.10
10598;BMP180;5346;48.766;8.674;2023-05-29T06:16:20;94259.00;;;18.30
10598;BMP180;5346;48.766;8.674;2023-05-29T06:18:55;94257.00;;;18.50
10598;BMP180;5346;48.766;8.674;2023-05-29T06:21:22;94268.00;;;19.00
10598;BMP180;5346;48.766;8.674;2023-05-29T06:23:55;94264.00;;;18.90
10598;BMP180;5346;48.766;8.674;2023-05-29T06:26:23;94269.00;;;19.40
10598;BMP180;5346;48.766;8.674;2023-05-29T06:28:58;94266.00;;;20.30
10598;BMP180;5346;48.766;8.674;2023-05-29T06:31:26;94239.00;;;20.10
10598;BMP180;5346;48.766;8.674;2023-05-29T06:34:00;94260.00;;;20.30
10598;BMP180;5346;48.766;8.674;2023-05-29T06:36:28;94274.00;;;20.10
10598;BMP180;5346;48.766;8.674;2023-05-29T06:39:03;94275.00;;;20.90
10598;BMP180;5346;48.766;8.674;2023-05-29T06:41:47;94280.00;;;21.50
10598;BMP180;5346;48.766;8.674;2023-05-29T06:44:20;94268.00;;;21.50
10598;BMP180;5346;48.766;8.674;2023-05-29T06:46:48;94280.00;;;20.90
10598;BMP180;5346;48.766;8.674;2023-05-29T06:49:22;94281.00;;;20.90
10598;BMP180;5346;48.766;8.674;2023-05-29T06:51:55;94291.00;;;21.00
10598;BMP180;5346;48.766;8.674;2023-05-29T06:54:29;94295.00;;;20.70
10598;BMP180;5346;48.766;8.674;2023-05-29T06:57:04;94296.00;;;20.90
10598;BMP180;5346;48.766;8.674;2023-05-29T06:59:51;94285.00;;;20.90
10598;BMP180;5346;48.766;8.674;2023-05-29T07:02:24;94303.00;;;20.70
10598;BMP180;5346;48.766;8.674;2023-05-29T07:05:05;94284.00;;;20.00
10598;BMP180;5346;48.766;8.674;2023-05-29T07:07:49;94318.00;;;19.90
10598;BMP180;5346;48.766;8.674;2023-05-29T07:10:29;94303.00;;;20.20
10598;BMP180;5346;48.766;8.674;2023-05-29T07:13:04;94321.00;;;20.00
10598;BMP180;5346;48.766;8.674;2023-05-29T07:15:40;94320.00;;;20.10
10598;BMP180;5346;48.766;8.674;2023-05-29T07:18:08;94318.00;;;20.20
10598;BMP180;5346;48.766;8.674;2023-05-29T07:20:42;94298.00;;;20.40
10598;BMP180;5346;48.766;8.674;2023-05-29T07:23:16;94318.00;;;20.50
10598;BMP180;5346;48.766;8.674;2023-05-29T07:25:43;94321.00;;;20.70
10598;BMP180;5346;48.766;8.674;2023-05-29T07:28:16;94309.00;;;20.30
10598;BMP180;5346;48.766;8.674;2023-05-29T07:30:51;94309.00;;;20.40
10598;BMP180;5346;48.766;8.674;2023-05-29T07:33:18;94328.00;;;20.20
10598;BMP180;5346;48.766;8.674;2023-05-29T07:35:52;94322.00;;;20.60
10598;BMP180;5346;48.766;8.674;2023-05-29T07:38:25;94311.00;;;20.80
10598;BMP180;5346;48.766;8.674;2023-05-29T07:40:53;94316.00;;;21.00
10598;BMP180;5346;48.766;8.674;2023-05-29T07:43:27;94325.00;;;21.20
10598;BMP180;5346;48.766;8.674;2023-05-29T07:45:54;94322.00;;;20.90
10598;BMP180;5346;48.766;8.674;2023-05-29T07:48:28;94332.00;;;20.70
10598;BMP180;5346;48.766;8.674;2023-05-29T07:51:02;94337.00;;;20.90
10598;BMP180;5346;48.766;8.674;2023-05-29T07:53:36;94340.00;;;21.20
10598;BMP180;5346;48.766;8.674;2023-05-29T07:56:03;94340.00;;;21.20
10598;BMP180;5346;48.766;8.674;2023-05-29T07:58:37;94334.00;;;21.00
10598;BMP180;5346;48.766;8.674;2023-05-29T08:01:04;94331.00;;;21.10
10598;BMP180;5346;48.766;8.674;2023-05-29T08:03:41;94343.00;;;21.10
10598;BMP180;5346;48.766;8.674;2023-05-29T08:06:21;94343.00;;;21.50
10598;BMP180;5346;48.766;8.674;2023-05-29T08:08:55;94335.00;;;21.50
10598;BMP180;5346;48.766;8.674;2023-05-29T08:11:23;94333.00;;;21.60
10598;BMP180;5346;48.766;8.674;2023-05-29T08:13:57;94317.00;;;21.70
10598;BMP180;5346;48.766;8.674;2023-05-29T08:16:28;94331.00;;;22.10
10598;BMP180;5346;48.766;8.674;2023-05-29T08:19:05;94335.00;;;22.50
10598;BMP180;5346;48.766;8.674;2023-05-29T08:21:32;94332.00;;;23.10
10598;BMP180;5346;48.766;8.674;2023-05-29T08:24:06;94336.00;;;23.40
10598;BMP180;5346;48.766;8.674;2023-05-29T08:26:40;94328.00;;;23.30
10598;BMP180;5346;48.766;8.674;2023-05-29T08:29:15;94333.00;;;23.00
10598;BMP180;5346;48.766;8.674;2023-05-29T08:31:55;94335.00;;;23.70
10598;BMP180;5346;48.766;8.674;2023-05-29T08:34:26;94338.00;;;22.90
10598;BMP180;5346;48.766;8.674;2023-05-29T08:37:04;94339.00;;;23.00
10598;BMP180;5346;48.766;8.674;2023-05-29T08:39:35;94340.00;;;23.10
10598;BMP180;5346;48.766;8.674;2023-05-29T08:42:21;94340.00;;;23.30
10598;BMP180;5346;48.766;8.674;2023-05-29T08:45:03;94337.00;;;23.50
10598;BMP180;5346;48.766;8.674;2023-05-29T08:47:42;94340.00;;;23.50
10598;BMP180;5346;48.766;8.674;2023-05-29T08:50:19;94347.00;;;23.30
10598;BMP180;5346;48.766;8.674;2023-05-29T08:52:47;94341.00;;;23.80
10598;BMP180;5346;48.766;8.674;2023-05-29T08:55:23;94340.00;;;23.40
10598;BMP180;5346;48.766;8.674;2023-05-29T08:57:58;94337.00;;;24.10
10598;BMP180;5346;48.766;8.674;2023-05-29T09:00:32;94338.00;;;24.70
10598;BMP180;5346;48.766;8.674;2023-05-29T09:03:07;94335.00;;;24.60
10598;BMP180;5346;48.766;8.674;2023-05-29T09:05:41;94332.00;;;25.40
10598;BMP180;5346;48.766;8.674;2023-05-29T09:08:23;94335.00;;;25.00
10598;BMP180;5346;48.766;8.674;2023-05-29T09:10:57;94335.00;;;25.00
10598;BMP180;5346;48.766;8.674;2023-05-29T09:13:31;94334.00;;;25.70
10598;BMP180;5346;48.766;8.674;2023-05-29T09:16:00;94341.00;;;25.50
10598;BMP180;5346;48.766;8.674;2023-05-29T09:18:36;94344.00;;;25.70
10598;BMP180;5346;48.766;8.674;2023-05-29T09:21:15;94345.00;;;25.90
10598;BMP180;5346;48.766;8.674;2023-05-29T09:24:04;94345.00;;;25.10
10598;BMP180;5346;48.766;8.674;2023-05-29T09:26:38;94348.00;;;25.20
10598;BMP180;5346;48.766;8.674;2023-05-29T09:29:06;94350.00;;;25.20
10598;BMP180;5346;48.766;8.674;2023-05-29T09:31:46;94343.00;;;25.30
10598;BMP180;5346;48.766;8.674;2023-05-29T09:34:24;94349.00;;;25.50
10598;BMP180;5346;48.766;8.674;2023-05-29T09:37:08;94365.00;;;25.40
10598;BMP180;5346;48.766;8.674;2023-05-29T09:42:17;94363.00;;;25.90
10598;BMP180;5346;48.766;8.674;2023-05-29T09:44:49;94361.00;;;25.10
10598;BMP180;5346;48.766;8.674;2023-05-29T09:47:24;94366.00;;;24.80
10598;BMP180;5346;48.766;8.674;2023-05-29T09:50:00;94350.00;;;25.40
10598;BMP180;5346;48.766;8.674;2023-05-29T09:52:29;94359.00;;;25.40
10598;BMP180;5346;48.766;8.674;2023-05-29T09:55:06;94364.00;;;25.40
10598;BMP180;5346;48.766;8.674;2023-05-29T09:57:34;94345.00;;;25.80
10598;BMP180;5346;48.766;8.674;2023-05-29T10:00:10;94368.00;;;25.90
10598;BMP180;5346;48.766;8.674;2023-05-29T10:02:53;94364.00;;;25.90
10598;BMP180;5346;48.766;8.674;2023-05-29T10:05:38;94354.00;;;25.90
10598;BMP180;5346;48.766;8.674;2023-05-29T10:08:14;94352.00;;;26.10
10598;BMP180;5346;48.766;8.674;2023-05-29T10:11:02;94364.00;;;26.10
10598;BMP180;5346;48.766;8.674;2023-05-29T10:13:41;94359.00;;;26.50
10598;BMP180;5346;48.766;8.674;2023-05-29T10:16:11;94349.00;;;26.70
10598;BMP180;5346;48.766;8.674;2023-05-29T10:18:54;94353.00;;;27.10
10598;BMP180;5346;48.766;8.674;2023-05-29T10:21:29;94357.00;;;26.30
10598;BMP180;5346;48.766;8.674;2023-05-29T10:23:58;94353.00;;;26.70
10598;BMP180;5346;48.766;8.674;2023-05-29T10:26:39;94356.00;;;26.30
10598;BMP180;5346;48.766;8.674;2023-05-29T10:29:37;94358.00;;;26.30
10598;BMP180;5346;48.766;8.674;2023-05-29T10:36:05;94355.00;;;26.30
10598;BMP180;5346;48.766;8.674;2023-05-29T10:38:17;94352.00;;;26.00
10598;BMP180;5346;48.766;8.674;2023-05-29T10:40:52;94353.00;;;25.80
10598;BMP180;5346;48.766;8.674;2023-05-29T10:43:40;94339.00;;;26.00
10598;BMP180;5346;48.766;8.674;2023-05-29T10:46:15;94349.00;;;26.40
10598;BMP180;5346;48.766;8.674;2023-05-29T10:48:43;94337.00;;;26.40
10598;BMP180;5346;48.766;8.674;2023-05-29T10:51:27;94352.00;;;27.20
10598;BMP180;5346;48.766;8.674;2023-05-29T10:54:05;94349.00;;;27.80
10598;BMP180;5346;48.766;8.674;2023-05-29T10:56:41;94355.00;;;27.60
10598;BMP180;5346;48.766;8.674;2023-05-29T10:59:11;94324.00;;;27.20
10598;BMP180;5346;48.766;8.674;2023-05-29T11:01:44;94347.00;;;27.20
10598;BMP180;5346;48.766;8.674;2023-05-29T11:07:02;94349.00;;;27.50
10598;BMP180;5346;48.766;8.674;2023-05-29T11:09:39;94345.00;;;27.80
10598;BMP180;5346;48.766;8.674;2023-05-29T11:12:24;94349.00;;;27.00
10598;BMP180;5346;48.766;8.674;2023-05-29T11:15:09;94344.00;;;26.90
10598;BMP180;5346;48.766;8.674;2023-05-29T11:20:47;94333.00;;;27.70
10598;BMP180;5346;48.766;8.674;2023-05-29T11:23:27;94332.00;;;27.80
10598;BMP180;5346;48.766;8.674;2023-05-29T11:25:59;94329.00;;;27.80
10598;BMP180;5346;48.766;8.674;2023-05-29T11:28:33;94341.00;;;27.70
10598;BMP180;5346;48.766;8.674;2023-05-29T11:31:02;94352.00;;;28.40
10598;BMP180;5346;48.766;8.674;2023-05-29T11:33:48;94351.00;;;28.60
10598;BMP180;5346;48.766;8.674;2023-05-29T11:36:22;94353.00;;;28.40
10598;BMP180;5346;48.766;8.674;2023-05-29T11:38:56;94356.00;;;28.00
10598;BMP180;5346;48.766;8.674;2023-05-29T11:41:23;94339.00;;;27.70
10598;BMP180;5346;48.766;8.674;2023-05-29T11:44:00;94339.00;;;28.60
10598;BMP180;5346;48.766;8.674;2023-05-29T11:46:29;94330.00;;;28.10
10598;BMP180;5346;48.766;8.674;2023-05-29T11:49:06;94330.00;;;28.70
10598;BMP180;5346;48.766;8.674;2023-05-29T11:51:42;94321.00;;;29.30
10598;BMP180;5346;48.766;8.674;2023-05-29T11:54:19;94330.00;;;29.30
10598;BMP180;5346;48.766;8.674;2023-05-29T11:56:53;94309.00;;;29.50
10598;BMP180;5346;48.766;8.674;2023-05-29T11:59:20;94339.00;;;29.70
10598;BMP180;5346;48.766;8.674;2023-05-29T12:01:53;94313.00;;;29.40
10598;BMP180;5346;48.766;8.674;2023-05-29T12:04:21;94375.00;;;28.00
10598;BMP180;5346;48.766;8.674;2023-05-29T12:06:54;94373.00;;;26.50
10598;BMP180;5346;48.766;8.674;2023-05-29T12:09:29;94339.00;;;26.90
10598;BMP180;5346;48.766;8.674;2023-05-29T12:12:04;94336.00;;;28.10
10598;BMP180;5346;48.766;8.674;2023-05-29T12:14:33;94344.00;;;28.70
10598;BMP180;5346;48.766;8.674;2023-05-29T12:17:07;94335.00;;;29.00
10598;BMP180;5346;48.766;8.674;2023-05-29T12:19:35;94341.00;;;28.70
10598;BMP180;5346;48.766;8.674;2023-05-29T12:22:08;94325.00;;;29.10
10598;BMP180;5346;48.766;8.674;2023-05-29T12:24:43;94334.00;;;28.40
10598;BMP180;5346;48.766;8.674;2023-05-29T12:27:16;94331.00;;;28.80
10598;BMP180;5346;48.766;8.674;2023-05-29T12:29:45;94343.00;;;29.30
10598;BMP180;5346;48.766;8.674;2023-05-29T12:32:18;94348.00;;;28.80
10598;BMP180;5346;48.766;8.674;2023-05-29T12:34:49;94329.00;;;28.90
10598;BMP180;5346;48.766;8.674;2023-05-29T12:37:24;94312.00;;;29.10
10598;BMP180;5346;48.766;8.674;2023-05-29T12:40:14;94340.00;;;29.50
10598;BMP180;5346;48.766;8.674;2023-05-29T12:42:56;94352.00;;;29.50
10598;BMP180;5346;48.766;8.674;2023-05-29T12:45:29;94350.00;;;29.00
10598;BMP180;5346;48.766;8.674;2023-05-29T12:48:06;94361.00;;;28.00
10598;BMP180;5346;48.766;8.674;2023-05-29T12:50:40;94329.00;;;28.00
10598;BMP180;5346;48.766;8.674;2023-05-29T12:53:15;94350.00;;;28.60
10598;BMP180;5346;48.766;8.674;2023-05-29T12:55:44;94313.00;;;28.60
10598;BMP180;5346;48.766;8.674;2023-05-29T12:58:17;94345.00;;;28.70
10598;BMP180;5346;48.766;8.674;2023-05-29T13:00:54;94353.00;;;28.20
10598;BMP180;5346;48.766;8.674;2023-05-29T13:03:30;94352.00;;;28.20
10598;BMP180;5346;48.766;8.674;2023-05-29T13:06:05;94324.00;;;28.00
10598;BMP180;5346;48.766;8.674;2023-05-29T13:08:40;94349.00;;;27.90
10598;BMP180;5346;48.766;8.674;2023-05-29T13:11:14;94341.00;;;27.50
10598;BMP180;5346;48.766;8.674;2023-05-29T13:13:48;94339.00;;;27.90
10598;BMP180;5346;48.766;8.674;2023-05-29T13:16:15;94317.00;;;28.30
10598;BMP180;5346;48.766;8.674;2023-05-29T13:18:51;94337.00;;;28.30
10598;BMP180;5346;48.766;8.674;2023-05-29T13:21:24;94342.00;;;28.40
10598;BMP180;5346;48.766;8.674;2023-05-29T13:23:52;94333.00;;;28.70
10598;BMP180;5346;48.766;8.674;2023-05-29T13:26:19;94312.00;;;28.60
10598;BMP180;5346;48.766;8.674;2023-05-29T13:28:52;94333.00;;;29.00
10598;BMP180;5346;48.766;8.674;2023-05-29T13:31:27;94328.00;;;28.10
10598;BMP180;5346;48.766;8.674;2023-05-29T13:34:01;94343.00;;;28.10
10598;BMP180;5346;48.766;8.674;2023-05-29T13:36:29;94335.00;;;28.60
10598;BMP180;5346;48.766;8.674;2023-05-29T13:39:03;94344.00;;;28.20
10598;BMP180;5346;48.766;8.674;2023-05-29T13:41:31;94334.00;;;28.50
10598;BMP180;5346;48.766;8.674;2023-05-29T13:44:04;94324.00;;;28.40
10598;BMP180;5346;48.766;8.674;2023-05-29T13:46:38;94311.00;;;28.40
10598;BMP180;5346;48.766;8.674;2023-05-29T13:49:12;94317.00;;;28.20
10598;BMP180;5346;48.766;8.674;2023-05-29T13:51:40;94315.00;;;27.90
10598;BMP180;5346;48.766;8.674;2023-05-29T13:54:16;94323.00;;;28.40
10598;BMP180;5346;48.766;8.674;2023-05-29T13:56:44;94325.00;;;28.30
10598;BMP180;5346;48.766;8.674;2023-05-29T13:59:25;94329.00;;;28.50
10598;BMP180;5346;48.766;8.674;2023-05-29T14:01:52;94323.00;;;28.30
10598;BMP180;5346;48.766;8.674;2023-05-29T14:04:26;94327.00;;;28.50
10598;BMP180;5346;48.766;8.674;2023-05-29T14:07:06;94320.00;;;28.90
10598;BMP180;5346;48.766;8.674;2023-05-29T14:09:40;94324.00;;;28.80
10598;BMP180;5346;48.766;8.674;2023-05-29T14:12:14;94318.00;;;29.40
10598;BMP180;5346;48.766;8.674;2023-05-29T14:14:48;94322.00;;;28.80
10598;BMP180;5346;48.766;8.674;2023-05-29T14:17:15;94319.00;;;28.90
10598;BMP180;5346;48.766;8.674;2023-05-29T14:19:49;94308.00;;;28.90
10598;BMP180;5346;48.766;8.674;2023-05-29T14:22:16;94309.00;;;28.80
10598;BMP180;5346;48.766;8.674;2023-05-29T14:24:50;94318.00;;;29.00
10598;BMP180;5346;48.766;8.674;2023-05-29T14:27:17;94311.00;;;28.70
10598;BMP180;5346;48.766;8.674;2023-05-29T14:29:51;94325.00;;;28.90
10598;BMP180;5346;48.766;8.674;2023-05-29T14:32:25;94315.00;;;28.20
10598;BMP180;5346;48.766;8.674;2023-05-29T14:34:59;94323.00;;;28.70
10598;BMP180;5346;48.766;8.674;2023-05-29T14:37:26;94327.00;;;28.60
10598;BMP180;5346;48.766;8.674;2023-05-29T14:40:01;94326.00;;;28.60
10598;BMP180;5346;48.766;8.674;2023-05-29T14:42:36;94327.00;;;28.30
10598;BMP180;5346;48.766;8.674;2023-05-29T14:45:15;94327.00;;;28.20
10598;BMP180;5346;48.766;8.674;2023-05-29T14:47:43;94315.00;;;28.50
10598;BMP180;5346;48.766;8.674;2023-05-29T14:50:17;94312.00;;;28.30
10598;BMP180;5346;48.766;8.674;2023-05-29T14:52:44;94317.00;;;28.90
10598;BMP180;5346;48.766;8.674;2023-05-29T14:55:19;94328.00;;;28.90
10598;BMP180;5346;48.766;8.674;2023-05-29T14:57:46;94308.00;;;29.30
10598;BMP180;5346;48.766;8.674;2023-05-29T15:00:20;94322.00;;;29.40
10598;BMP180;5346;48.766;8.674;2023-05-29T15:02:47;94328.00;;;29.50
10598;BMP180;5346;48.766;8.674;2023-05-29T15:05:21;94327.00;;;29.10
10598;BMP180;5346;48.766;8.674;2023-05-29T15:08:02;94318.00;;;29.50
10598;BMP180;5346;48.766;8.674;2023-05-29T15:10:36;94306.00;;;29.20
10598;BMP180;5346;48.766;8.674;2023-05-29T15:13:03;94313.00;;;29.20
10598;BMP180;5346;48.766;8.674;2023-05-29T15:15:40;94313.00;;;29.00
10598;BMP180;5346;48.766;8.674;2023-05-29T15:18:14;94307.00;;;28.80
10598;BMP180;5346;48.766;8.674;2023-05-29T15:20:48;94311.00;;;28.60